createdAt,value
2022-07-29T00:00:55.812Z,6.60
2022-07-29T00:03:28.482Z,6.30
2022-07-29T00:06:02.511Z,5.60
2022-07-29T00:08:35.379Z,5.70
2022-07-29T00:11:29.478Z,5.70
2022-07-29T00:14:02.905Z,5.80
2022-07-29T00:16:35.583Z,6.00
2022-07-29T00:19:08.391Z,5.70
2022-07-29T00:21:40.913Z,5.60
2022-07-29T00:24:13.995Z,6.00
2022-07-29T00:26:46.897Z,6.60
2022-07-29T00:29:35.212Z,6.60
2022-07-29T00:32:08.944Z,6.40
2022-07-29T00:34:59.465Z,5.80
2022-07-29T00:37:32.635Z,6.60
2022-07-29T00:40:05.606Z,6.90
2022-07-29T00:42:47.723Z,6.10
2022-07-29T00:45:21.313Z,6.10
2022-07-29T00:47:53.839Z,6.30
2022-07-29T00:50:26.947Z,6.50
2022-07-29T00:52:59.529Z,6.20
2022-07-29T00:55:33.387Z,7.20
2022-07-29T00:58:06.270Z,6.80
2022-07-29T01:00:39.253Z,7.30
2022-07-29T01:03:12.129Z,9.10
2022-07-29T01:05:51.559Z,8.10
2022-07-29T01:08:26.070Z,7.50
2022-07-29T01:10:59.388Z,9.50
2022-07-29T01:13:34.844Z,8.20
2022-07-29T01:16:15.452Z,7.70
2022-07-29T01:18:52.705Z,7.40
2022-07-29T01:21:50.302Z,7.70
2022-07-29T01:24:42.423Z,7.70
2022-07-29T01:27:35.767Z,7.60
2022-07-29T01:30:10.259Z,7.40
2022-07-29T01:32:49.530Z,7.20
2022-07-29T01:35:26.047Z,8.00
2022-07-29T01:38:04.377Z,8.00
2022-07-29T01:40:43.129Z,7.60
2022-07-29T01:43:19.796Z,7.70
2022-07-29T01:46:00.730Z,7.40
2022-07-29T01:48:41.816Z,7.40
2022-07-29T01:51:19.160Z,7.70
2022-07-29T01:53:56.694Z,7.40
2022-07-29T01:56:33.823Z,7.30
2022-07-29T01:59:10.904Z,7.80
2022-07-29T02:01:46.355Z,7.00
2022-07-29T02:04:29.941Z,7.20
2022-07-29T02:07:08.184Z,6.80
2022-07-29T02:09:43.276Z,7.10
2022-07-29T02:12:17.468Z,7.20
2022-07-29T02:14:53.214Z,7.20
2022-07-29T02:17:29.914Z,7.50
2022-07-29T02:20:06.183Z,7.00
2022-07-29T02:22:42.032Z,7.10
2022-07-29T02:25:16.012Z,7.30
2022-07-29T02:27:52.492Z,7.20
2022-07-29T02:30:26.687Z,6.70
2022-07-29T02:33:01.103Z,6.90
2022-07-29T02:35:34.961Z,7.10
2022-07-29T02:38:26.357Z,7.70
2022-07-29T02:41:02.660Z,6.50
2022-07-29T02:43:36.736Z,7.00
2022-07-29T02:46:29.524Z,8.00
2022-07-29T02:49:09.587Z,6.60
2022-07-29T02:51:49.382Z,6.90
2022-07-29T02:54:29.422Z,7.30
2022-07-29T02:57:06.284Z,6.30
2022-07-29T02:59:43.257Z,7.30
2022-07-29T03:02:18.251Z,6.40
2022-07-29T03:04:53.317Z,6.30
2022-07-29T03:07:27.031Z,5.80
2022-07-29T03:10:02.807Z,7.00
2022-07-29T03:12:36.121Z,6.00
2022-07-29T03:15:11.214Z,6.40
2022-07-29T03:17:44.596Z,7.10
2022-07-29T03:20:17.836Z,7.10
2022-07-29T03:22:51.028Z,7.30
2022-07-29T03:25:24.469Z,6.40
2022-07-29T03:27:59.363Z,6.40
2022-07-29T03:30:32.293Z,6.20
2022-07-29T03:33:04.800Z,6.60
2022-07-29T03:35:46.504Z,6.20
2022-07-29T03:38:19.055Z,7.20
2022-07-29T03:40:56.684Z,6.60
2022-07-29T03:46:08.758Z,6.50
2022-07-29T03:48:46.177Z,7.10
2022-07-29T03:51:18.898Z,7.00
2022-07-29T03:54:10.174Z,7.20
2022-07-29T03:56:47.340Z,6.10
2022-07-29T03:59:22.614Z,7.40
2022-07-29T04:01:56.574Z,7.20
2022-07-29T04:04:29.506Z,7.30
2022-07-29T04:07:02.078Z,6.80
2022-07-29T04:09:34.935Z,6.50
2022-07-29T04:12:09.801Z,6.40
2022-07-29T04:14:42.640Z,6.50
2022-07-29T04:17:16.779Z,6.40
2022-07-29T04:19:49.333Z,5.70
2022-07-29T04:22:21.979Z,6.60
2022-07-29T04:24:57.107Z,5.50
2022-07-29T04:27:33.090Z,6.70
2022-07-29T04:30:06.367Z,5.60
2022-07-29T04:32:38.943Z,6.70
2022-07-29T04:35:12.257Z,6.60
2022-07-29T04:37:48.677Z,7.80
2022-07-29T04:40:21.886Z,7.30
2022-07-29T04:42:54.500Z,6.70
2022-07-29T04:45:28.268Z,6.60
2022-07-29T04:48:00.824Z,6.60
2022-07-29T04:50:33.743Z,6.70
2022-07-29T04:53:06.587Z,7.10
2022-07-29T04:55:39.892Z,7.10
2022-07-29T04:58:12.800Z,6.60
2022-07-29T05:00:46.339Z,6.30
2022-07-29T05:03:19.757Z,6.60
2022-07-29T05:05:55.104Z,7.00
2022-07-29T05:08:28.897Z,7.00
2022-07-29T05:11:21.023Z,6.50
2022-07-29T05:13:59.518Z,6.60
2022-07-29T05:16:45.401Z,6.90
2022-07-29T05:19:20.271Z,7.00
2022-07-29T05:21:59.805Z,6.90
2022-07-29T05:24:33.023Z,7.50
2022-07-29T05:27:09.255Z,9.20
2022-07-29T05:29:45.834Z,10.50
2022-07-29T05:32:19.297Z,12.40
2022-07-29T05:34:52.068Z,7.70
2022-07-29T05:37:25.077Z,7.60
2022-07-29T05:39:57.618Z,7.30
2022-07-29T05:42:32.348Z,7.60
2022-07-29T05:45:05.289Z,7.60
2022-07-29T05:47:37.879Z,7.70
2022-07-29T05:50:11.748Z,6.70
2022-07-29T05:52:44.344Z,6.50
2022-07-29T05:55:17.176Z,6.50
2022-07-29T05:57:49.805Z,6.40
2022-07-29T06:00:22.177Z,7.10
2022-07-29T06:02:54.840Z,6.40
2022-07-29T06:05:27.386Z,6.60
2022-07-29T06:08:00.124Z,6.20
2022-07-29T06:10:32.648Z,6.60
2022-07-29T06:13:05.840Z,6.30
2022-07-29T06:15:38.670Z,6.00
2022-07-29T06:18:12.005Z,6.10
2022-07-29T06:20:44.775Z,6.10
2022-07-29T06:23:17.533Z,6.50
2022-07-29T06:25:50.531Z,6.40
2022-07-29T06:28:24.330Z,5.80
2022-07-29T06:30:56.802Z,6.30
2022-07-29T06:33:29.461Z,6.60
2022-07-29T06:36:02.127Z,6.10
2022-07-29T06:38:42.092Z,6.10
2022-07-29T06:41:18.212Z,6.00
2022-07-29T06:43:55.189Z,5.60
2022-07-29T06:46:30.090Z,5.70
2022-07-29T06:49:03.707Z,5.80
2022-07-29T06:51:36.278Z,5.70
2022-07-29T06:54:08.943Z,5.70
2022-07-29T06:56:43.304Z,6.10
2022-07-29T06:59:16.762Z,5.70
2022-07-29T07:01:49.336Z,5.10
2022-07-29T07:04:21.992Z,5.30
2022-07-29T07:06:56.781Z,5.70
2022-07-29T07:09:39.971Z,4.90
2022-07-29T07:12:13.529Z,5.60
2022-07-29T07:14:46.072Z,5.90
2022-07-29T07:17:18.580Z,5.50
2022-07-29T07:19:51.016Z,5.50
2022-07-29T07:22:23.525Z,5.40
2022-07-29T07:24:55.928Z,5.10
2022-07-29T07:27:29.565Z,5.40
2022-07-29T07:30:01.876Z,5.20
2022-07-29T07:32:37.511Z,5.10
2022-07-29T07:35:12.635Z,5.40
2022-07-29T07:37:45.272Z,5.40
2022-07-29T07:40:18.979Z,5.10
2022-07-29T07:42:51.516Z,5.10
2022-07-29T07:45:24.280Z,4.90
2022-07-29T07:47:56.682Z,4.70
2022-07-29T07:50:30.172Z,4.70
2022-07-29T07:53:03.294Z,4.80
2022-07-29T07:56:00.385Z,4.30
2022-07-29T07:58:28.684Z,4.80
2022-07-29T08:01:01.306Z,4.40
2022-07-29T08:03:33.858Z,4.20
2022-07-29T08:06:07.119Z,4.50
2022-07-29T08:08:39.462Z,4.50
2022-07-29T08:11:11.934Z,4.30
2022-07-29T08:13:44.619Z,4.30
2022-07-29T08:16:17.383Z,4.40
2022-07-29T08:18:50.302Z,4.70
2022-07-29T08:21:22.931Z,4.20
2022-07-29T08:24:15.954Z,4.70
2022-07-29T08:26:48.676Z,4.40
2022-07-29T08:29:21.397Z,4.60
2022-07-29T08:31:54.336Z,4.60
2022-07-29T08:34:27.666Z,4.80
2022-07-29T08:37:00.690Z,4.80
2022-07-29T08:39:33.086Z,4.80
2022-07-29T08:42:05.827Z,4.50
2022-07-29T08:44:39.388Z,4.50
2022-07-29T08:47:12.842Z,4.30
2022-07-29T08:49:46.494Z,4.60
2022-07-29T08:52:20.813Z,4.50
2022-07-29T08:54:54.565Z,4.50
2022-07-29T08:57:29.854Z,4.40
2022-07-29T09:00:08.195Z,4.80
2022-07-29T09:02:50.905Z,4.10
2022-07-29T09:05:24.922Z,3.80
2022-07-29T09:07:57.774Z,4.30
2022-07-29T09:10:31.298Z,4.00
2022-07-29T09:13:04.081Z,4.30
2022-07-29T09:15:36.761Z,4.00
2022-07-29T09:18:28.910Z,4.10
2022-07-29T09:21:19.839Z,3.80
2022-07-29T09:24:07.759Z,3.80
2022-07-29T09:26:42.023Z,3.70
2022-07-29T09:29:16.042Z,4.20
2022-07-29T09:31:50.188Z,4.00
2022-07-29T09:34:26.580Z,4.20
2022-07-29T09:36:59.879Z,3.90
2022-07-29T09:39:34.085Z,4.20
2022-07-29T09:42:08.618Z,4.10
2022-07-29T09:44:49.797Z,4.10
2022-07-29T09:47:27.085Z,4.50
2022-07-29T09:52:32.812Z,4.00
2022-07-29T09:55:18.457Z,4.40
2022-07-29T09:57:52.510Z,4.00
2022-07-29T10:00:26.361Z,4.20
2022-07-29T10:03:04.373Z,3.90
2022-07-29T10:05:37.113Z,3.80
2022-07-29T10:08:10.808Z,3.30
2022-07-29T10:10:45.736Z,3.70
2022-07-29T10:13:18.531Z,4.00
2022-07-29T10:15:52.309Z,3.80
2022-07-29T10:18:25.335Z,4.00
2022-07-29T10:20:58.491Z,4.00
2022-07-29T10:23:47.037Z,3.80
2022-07-29T10:26:21.513Z,4.00
2022-07-29T10:28:53.907Z,3.80
2022-07-29T10:31:34.761Z,3.80
2022-07-29T10:34:17.081Z,3.90
2022-07-29T10:37:00.314Z,4.00
2022-07-29T10:39:50.121Z,4.20
2022-07-29T10:45:21.126Z,3.90
2022-07-29T10:48:08.942Z,4.00
2022-07-29T10:51:04.167Z,3.90
2022-07-29T10:53:54.492Z,3.90
2022-07-29T10:56:35.546Z,3.80
2022-07-29T10:59:32.428Z,3.90
2022-07-29T11:02:52.379Z,4.00
2022-07-29T11:05:32.215Z,4.00
2022-07-29T11:08:27.651Z,3.70
2022-07-29T11:11:38.038Z,3.70
2022-07-29T11:14:10.664Z,3.90
2022-07-29T11:17:06.220Z,3.60
2022-07-29T11:19:45.688Z,3.70
2022-07-29T11:22:36.285Z,4.00
2022-07-29T11:25:18.992Z,3.80
2022-07-29T11:28:22.956Z,3.70
2022-07-29T11:30:58.175Z,4.30
2022-07-29T11:33:37.571Z,3.90
2022-07-29T11:39:36.450Z,2.80
2022-07-29T11:42:55.048Z,3.10
2022-07-29T11:45:47.205Z,3.40
2022-07-29T11:48:28.774Z,3.30
2022-07-29T11:51:13.302Z,3.60
2022-07-29T11:53:52.826Z,3.10
2022-07-29T11:56:28.756Z,3.30
2022-07-29T11:59:08.471Z,3.40
2022-07-29T12:02:18.340Z,3.10
2022-07-29T12:04:55.286Z,3.70
2022-07-29T12:07:33.857Z,3.60
2022-07-29T12:10:11.371Z,3.30
2022-07-29T12:12:56.542Z,3.60
2022-07-29T12:18:24.343Z,3.40
2022-07-29T12:23:36.760Z,3.50
2022-07-29T12:26:10.991Z,3.60
2022-07-29T12:28:54.720Z,4.00
2022-07-29T12:31:43.684Z,3.40
2022-07-29T12:34:19.214Z,3.40
2022-07-29T12:36:52.527Z,3.10
2022-07-29T12:39:27.641Z,3.20
2022-07-29T12:42:03.942Z,3.00
2022-07-29T12:48:39.441Z,3.10
2022-07-29T12:51:15.593Z,2.90
2022-07-29T12:54:06.193Z,3.30
2022-07-29T12:56:43.614Z,3.10
2022-07-29T12:59:19.623Z,3.10
2022-07-29T13:01:54.787Z,3.60
2022-07-29T13:04:32.852Z,3.40
2022-07-29T13:07:09.151Z,3.20
2022-07-29T13:09:44.953Z,2.90
2022-07-29T13:12:17.844Z,2.90
2022-07-29T13:14:51.718Z,2.60
2022-07-29T13:17:32.745Z,2.80
2022-07-29T13:20:13.876Z,3.00
2022-07-29T13:22:49.734Z,3.00
2022-07-29T13:25:34.939Z,3.20
2022-07-29T13:28:07.557Z,3.20
2022-07-29T13:30:44.597Z,3.20
2022-07-29T13:33:18.251Z,3.20
2022-07-29T13:35:54.749Z,3.20
2022-07-29T13:38:31.145Z,3.00
2022-07-29T13:41:05.351Z,3.10
2022-07-29T13:43:38.161Z,2.80
2022-07-29T13:46:10.789Z,3.30
2022-07-29T13:48:43.291Z,3.00
2022-07-29T13:51:15.956Z,3.30
2022-07-29T13:53:48.335Z,3.00
2022-07-29T13:56:20.841Z,2.90
2022-07-29T13:58:53.383Z,2.90
2022-07-29T14:01:26.540Z,3.10
2022-07-29T14:03:59.304Z,3.20
2022-07-29T14:06:32.161Z,2.90
2022-07-29T14:09:07.261Z,2.90
2022-07-29T14:11:40.043Z,3.00
2022-07-29T14:14:12.435Z,2.70
2022-07-29T14:16:47.598Z,2.70
2022-07-29T14:19:23.794Z,2.90
2022-07-29T14:21:56.507Z,2.80
2022-07-29T14:24:30.737Z,2.90
2022-07-29T14:27:05.058Z,3.10
2022-07-29T14:29:38.878Z,3.00
2022-07-29T14:32:16.127Z,2.80
2022-07-29T14:34:48.628Z,2.80
2022-07-29T14:37:21.135Z,2.80
2022-07-29T14:39:53.476Z,3.20
2022-07-29T14:42:26.372Z,2.70
2022-07-29T14:44:58.866Z,2.90
2022-07-29T14:47:31.176Z,2.70
2022-07-29T14:50:04.075Z,2.60
2022-07-29T14:52:36.919Z,2.70
2022-07-29T14:55:16.290Z,2.90
2022-07-29T14:57:51.113Z,2.70
2022-07-29T15:00:25.652Z,2.80
2022-07-29T15:03:02.762Z,2.50
2022-07-29T15:09:20.625Z,2.90
2022-07-29T15:11:53.824Z,2.70
2022-07-29T15:14:26.409Z,3.00
2022-07-29T15:16:58.876Z,2.90
2022-07-29T15:19:31.775Z,2.90
2022-07-29T15:22:06.152Z,3.10
2022-07-29T15:24:42.769Z,3.00
2022-07-29T15:29:50.217Z,3.20
2022-07-29T15:32:22.563Z,2.70
2022-07-29T15:35:02.697Z,3.00
2022-07-29T15:37:49.140Z,2.80
2022-07-29T15:40:22.004Z,2.70
2022-07-29T15:42:54.975Z,2.80
2022-07-29T15:45:31.945Z,3.00
2022-07-29T15:48:06.326Z,3.20
2022-07-29T15:50:38.614Z,3.00
2022-07-29T15:53:11.120Z,2.80
2022-07-29T15:55:44.552Z,2.80
2022-07-29T15:58:17.206Z,2.90
2022-07-29T16:00:49.722Z,2.90
2022-07-29T16:03:22.995Z,2.80
2022-07-29T16:05:56.067Z,3.10
2022-07-29T16:08:28.593Z,2.90
2022-07-29T16:11:01.023Z,3.10
2022-07-29T16:13:34.709Z,2.90
2022-07-29T16:16:07.725Z,2.90
2022-07-29T16:18:40.079Z,3.00
2022-07-29T16:21:12.362Z,3.10
2022-07-29T16:23:46.696Z,2.60
2022-07-29T16:26:19.693Z,2.70
2022-07-29T16:28:55.166Z,2.70
2022-07-29T16:31:27.979Z,2.60
2022-07-29T16:34:00.346Z,2.90
2022-07-29T16:36:35.036Z,2.90
2022-07-29T16:39:08.403Z,2.90
2022-07-29T16:41:40.965Z,2.70
2022-07-29T16:44:13.409Z,3.10
2022-07-29T16:46:48.880Z,3.10
2022-07-29T16:49:24.936Z,2.80
2022-07-29T16:51:57.981Z,3.10
2022-07-29T16:54:34.219Z,3.40
2022-07-29T16:57:07.077Z,3.70
2022-07-29T16:59:43.513Z,3.00
2022-07-29T17:02:16.340Z,3.30
2022-07-29T17:04:49.964Z,3.00
2022-07-29T17:07:22.502Z,3.20
2022-07-29T17:09:56.420Z,3.30
2022-07-29T17:12:32.995Z,3.40
2022-07-29T17:15:09.315Z,3.70
2022-07-29T17:17:55.450Z,3.10
2022-07-29T17:20:29.198Z,3.60
2022-07-29T17:23:03.994Z,4.00
2022-07-29T17:25:38.773Z,4.30
2022-07-29T17:28:11.160Z,4.30
2022-07-29T17:30:43.520Z,4.40
2022-07-29T17:33:16.332Z,4.20
2022-07-29T17:36:08.415Z,4.20
2022-07-29T17:38:40.862Z,4.30
2022-07-29T17:41:13.450Z,3.90
2022-07-29T17:43:46.706Z,4.60
2022-07-29T17:46:19.846Z,4.10
2022-07-29T17:48:52.452Z,4.30
2022-07-29T17:51:26.209Z,4.60
2022-07-29T17:53:58.686Z,4.90
2022-07-29T17:56:31.047Z,5.10
2022-07-29T17:59:06.833Z,4.90
2022-07-29T18:01:41.563Z,5.30
2022-07-29T18:04:15.693Z,5.10
2022-07-29T18:06:48.312Z,5.10
2022-07-29T18:09:21.153Z,5.30
2022-07-29T18:11:54.071Z,5.90
2022-07-29T18:14:27.021Z,5.60
2022-07-29T18:16:59.851Z,5.30
2022-07-29T18:19:32.618Z,4.70
2022-07-29T18:22:05.607Z,5.20
2022-07-29T18:24:38.688Z,5.40
2022-07-29T18:27:11.538Z,5.70
2022-07-29T18:29:43.986Z,5.40
2022-07-29T18:32:28.964Z,5.20
2022-07-29T18:35:05.364Z,5.30
2022-07-29T18:40:30.418Z,6.30
2022-07-29T18:43:03.096Z,7.50
2022-07-29T18:45:36.012Z,5.80
2022-07-29T18:48:13.199Z,6.40
2022-07-29T18:50:46.711Z,6.10
2022-07-29T18:53:19.378Z,6.00
2022-07-29T18:55:51.995Z,5.50
2022-07-29T18:58:24.419Z,5.00
2022-07-29T19:00:57.116Z,5.60
2022-07-29T19:03:29.699Z,5.80
2022-07-29T19:06:02.203Z,5.80
2022-07-29T19:08:34.705Z,5.80
2022-07-29T19:11:08.060Z,5.70
2022-07-29T19:13:40.832Z,5.60
2022-07-29T19:16:14.350Z,5.80
2022-07-29T19:18:48.067Z,5.60
2022-07-29T19:21:20.817Z,5.60
2022-07-29T19:24:00.661Z,5.60
2022-07-29T19:26:46.822Z,5.50
2022-07-29T19:29:19.515Z,5.00
2022-07-29T19:31:52.093Z,5.10
2022-07-29T19:34:24.925Z,5.70
2022-07-29T19:36:57.792Z,5.60
2022-07-29T19:39:34.802Z,5.70
2022-07-29T19:44:41.446Z,6.10
2022-07-29T19:47:17.416Z,5.80
2022-07-29T19:49:50.568Z,6.10
2022-07-29T19:52:23.227Z,4.40
2022-07-29T19:54:56.186Z,5.30
2022-07-29T19:57:29.294Z,5.30
2022-07-29T20:00:18.160Z,5.40
2022-07-29T20:02:53.789Z,5.50
2022-07-29T20:05:28.550Z,5.40
2022-07-29T20:10:56.128Z,5.70
2022-07-29T20:13:28.606Z,5.50
2022-07-29T20:16:04.304Z,5.80
2022-07-29T20:18:43.442Z,5.90
2022-07-29T20:21:15.823Z,5.60
2022-07-29T20:24:02.566Z,5.30
2022-07-29T20:26:37.800Z,5.10
2022-07-29T20:29:11.673Z,5.20
2022-07-29T20:31:45.773Z,5.40
2022-07-29T20:34:29.051Z,5.80
2022-07-29T20:37:03.089Z,5.60
2022-07-29T20:39:39.705Z,5.40
2022-07-29T20:42:12.391Z,5.40
2022-07-29T20:44:51.293Z,5.50
2022-07-29T20:47:23.825Z,5.30
2022-07-29T20:50:01.437Z,5.20
2022-07-29T20:52:33.922Z,5.00
2022-07-29T20:55:10.516Z,5.20
2022-07-29T20:57:52.704Z,5.70
2022-07-29T21:00:29.117Z,5.60
2022-07-29T21:03:03.108Z,5.00
2022-07-29T21:05:43.185Z,5.20
2022-07-29T21:08:19.807Z,6.00
2022-07-29T21:10:56.600Z,5.60
2022-07-29T21:13:29.144Z,6.10
2022-07-29T21:16:06.328Z,5.90
2022-07-29T21:18:46.586Z,6.00
2022-07-29T21:21:19.988Z,5.10
2022-07-29T21:23:53.755Z,5.70
2022-07-29T21:26:28.416Z,5.70
2022-07-29T21:29:02.842Z,6.10
2022-07-29T21:31:35.876Z,4.90
2022-07-29T21:34:08.455Z,6.10
2022-07-29T21:36:48.158Z,5.70
2022-07-29T21:39:24.435Z,6.40
2022-07-29T21:41:58.457Z,6.20
2022-07-29T21:44:42.834Z,5.40
2022-07-29T21:47:15.567Z,6.10
2022-07-29T21:49:53.317Z,6.00
2022-07-29T21:52:28.345Z,6.10
2022-07-29T21:55:01.989Z,5.80
2022-07-29T21:57:37.361Z,5.80
2022-07-29T22:00:16.366Z,7.00
2022-07-29T22:02:51.922Z,6.20
2022-07-29T22:05:24.424Z,5.60
2022-07-29T22:07:57.331Z,5.30
2022-07-29T22:10:32.441Z,6.30
2022-07-29T22:13:05.547Z,5.50
2022-07-29T22:15:42.030Z,5.80
2022-07-29T22:18:20.971Z,5.50
2022-07-29T22:20:54.395Z,5.50
2022-07-29T22:23:26.987Z,5.60
2022-07-29T22:26:00.244Z,5.90
2022-07-29T22:28:33.306Z,5.50
2022-07-29T22:31:05.824Z,6.40
2022-07-29T22:33:38.571Z,6.10
2022-07-29T22:36:11.353Z,6.10
2022-07-29T22:38:43.781Z,5.50
2022-07-29T22:41:16.306Z,5.20
2022-07-29T22:43:49.131Z,6.10
2022-07-29T22:46:21.774Z,6.30
2022-07-29T22:49:00.005Z,5.90
2022-07-29T22:51:33.816Z,6.10
2022-07-29T22:54:07.712Z,5.60
2022-07-29T22:56:40.390Z,5.30
2022-07-29T22:59:12.970Z,5.60
2022-07-29T23:01:45.885Z,5.60
2022-07-29T23:04:23.856Z,5.60
2022-07-29T23:06:57.058Z,5.20
2022-07-29T23:09:30.334Z,5.30
2022-07-29T23:12:02.868Z,5.50
2022-07-29T23:14:35.445Z,5.50
2022-07-29T23:17:08.368Z,5.00
2022-07-29T23:19:41.004Z,5.20
2022-07-29T23:22:13.809Z,4.50
2022-07-29T23:24:46.516Z,5.00
2022-07-29T23:27:18.995Z,5.00
2022-07-29T23:29:51.487Z,4.50
2022-07-29T23:32:24.027Z,4.80
2022-07-29T23:34:56.565Z,5.00
2022-07-29T23:37:29.205Z,5.20
2022-07-29T23:40:01.641Z,4.50
2022-07-29T23:42:34.015Z,4.50
2022-07-29T23:45:07.852Z,4.80
2022-07-29T23:47:40.796Z,5.20
2022-07-29T23:50:46.924Z,4.40
2022-07-29T23:53:20.117Z,4.80
2022-07-29T23:55:52.720Z,4.90
2022-07-29T23:58:25.137Z,4.70
